createdAt,value
2022-09-28T00:01:14.465Z,492.07
2022-09-28T00:06:21.617Z,492.48
2022-09-28T00:11:28.806Z,493.27
2022-09-28T00:16:36.075Z,495.66
2022-09-28T00:21:43.212Z,495.07
2022-09-28T00:26:50.388Z,495.03
2022-09-28T00:31:57.637Z,497.47
2022-09-28T00:37:05.012Z,499.86
2022-09-28T00:42:12.223Z,499.66
2022-09-28T00:47:19.455Z,500.35
2022-09-28T00:52:26.844Z,502.73
2022-09-28T00:57:34.002Z,503.68
2022-09-28T01:02:41.270Z,505.41
2022-09-28T01:07:49.499Z,507.17
2022-09-28T01:12:56.742Z,508.15
2022-09-28T01:18:03.921Z,509.14
2022-09-28T01:23:11.139Z,511.08
2022-09-28T01:28:18.388Z,512.18
2022-09-28T01:33:25.566Z,513.31
2022-09-28T01:38:32.794Z,513.87
2022-09-28T01:43:44.581Z,514.28
2022-09-28T01:48:51.789Z,515.97
2022-09-28T01:53:59.009Z,516.49
2022-09-28T01:59:06.167Z,515.86
2022-09-28T02:04:13.400Z,516.22
2022-09-28T02:09:20.700Z,516.97
2022-09-28T02:14:27.910Z,517.84
2022-09-28T02:19:35.173Z,519.01
2022-09-28T02:24:42.450Z,519.56
2022-09-28T02:29:49.656Z,519.58
2022-09-28T02:34:56.839Z,520.69
2022-09-28T02:40:04.302Z,520.52
2022-09-28T02:45:11.448Z,520.07
2022-09-28T02:50:18.624Z,520.47
2022-09-28T02:55:25.888Z,521.98
2022-09-28T03:00:33.155Z,523.68
2022-09-28T03:05:40.307Z,522.68
2022-09-28T03:10:47.583Z,523.10
2022-09-28T03:15:54.713Z,521.97
2022-09-28T03:21:01.881Z,522.05
2022-09-28T03:26:09.045Z,522.51
2022-09-28T03:31:16.241Z,522.32
2022-09-28T03:36:23.383Z,522.25
2022-09-28T03:41:30.654Z,522.26
2022-09-28T03:46:37.835Z,524.21
2022-09-28T03:51:45.016Z,524.69
2022-09-28T03:56:52.282Z,525.26
2022-09-28T04:01:59.611Z,526.33
2022-09-28T04:07:06.814Z,526.07
2022-09-28T04:12:14.077Z,526.21
2022-09-28T04:17:21.297Z,526.64
2022-09-28T04:22:28.445Z,528.38
2022-09-28T04:27:35.664Z,526.36
2022-09-28T04:32:42.866Z,528.31
2022-09-28T04:37:50.093Z,529.31
2022-09-28T04:42:57.380Z,531.82
2022-09-28T04:48:04.635Z,530.49
2022-09-28T04:53:11.815Z,531.63
2022-09-28T04:58:19.021Z,529.67
2022-09-28T05:03:26.181Z,531.00
2022-09-28T05:08:33.383Z,529.54
2022-09-28T05:13:40.577Z,529.42
2022-09-28T05:18:47.795Z,529.17
2022-09-28T05:23:55.004Z,529.59
2022-09-28T05:29:02.231Z,529.61
2022-09-28T05:34:09.442Z,529.58
2022-09-28T05:39:16.733Z,529.94
2022-09-28T05:44:23.854Z,529.63
2022-09-28T05:49:31.084Z,530.38
2022-09-28T05:54:38.301Z,529.86
2022-09-28T05:59:45.555Z,530.18
2022-09-28T06:04:52.739Z,529.11
2022-09-28T06:09:59.994Z,529.71
2022-09-28T06:15:07.247Z,528.87
2022-09-28T06:20:14.451Z,528.71
2022-09-28T06:25:21.602Z,526.38
2022-09-28T06:30:28.938Z,528.09
2022-09-28T06:35:35.952Z,527.02
2022-09-28T06:40:43.203Z,527.23
2022-09-28T06:45:50.446Z,525.27
2022-09-28T06:50:57.512Z,525.68
2022-09-28T06:56:04.736Z,525.39
2022-09-28T07:01:12.061Z,525.90
2022-09-28T07:06:19.073Z,525.72
2022-09-28T07:11:26.308Z,523.95
2022-09-28T07:16:59.461Z,522.88
2022-09-28T07:21:40.862Z,522.65
2022-09-28T07:26:48.114Z,522.04
2022-09-28T07:31:55.338Z,521.73
2022-09-28T07:37:02.604Z,521.47
2022-09-28T07:42:09.815Z,520.94
2022-09-28T07:47:17.063Z,520.44
2022-09-28T07:52:24.248Z,519.94
2022-09-28T07:57:31.453Z,519.08
2022-09-28T08:02:38.730Z,518.87
2022-09-28T08:07:45.921Z,517.79
2022-09-28T08:12:53.172Z,517.52
2022-09-28T08:18:02.704Z,516.66
2022-09-28T08:23:07.534Z,517.69
2022-09-28T08:28:14.682Z,518.19
2022-09-28T08:33:21.963Z,517.86
2022-09-28T08:38:29.121Z,517.97
2022-09-28T08:43:36.286Z,518.07
2022-09-28T08:48:45.713Z,517.95
2022-09-28T08:53:50.663Z,517.82
2022-09-28T08:58:57.843Z,516.79
2022-09-28T09:04:05.025Z,516.53
2022-09-28T09:09:12.327Z,514.90
2022-09-28T09:14:19.515Z,514.84
2022-09-28T09:19:26.742Z,513.57
2022-09-28T09:24:33.879Z,512.85
2022-09-28T09:29:41.121Z,512.43
2022-09-28T09:34:48.283Z,512.41
2022-09-28T09:39:55.412Z,512.06
2022-09-28T09:45:02.641Z,512.12
2022-09-28T09:50:09.971Z,513.15
2022-09-28T09:55:17.051Z,514.32
2022-09-28T10:00:24.286Z,515.26
2022-09-28T10:05:31.493Z,514.96
2022-09-28T10:10:38.732Z,514.26
2022-09-28T10:15:45.976Z,512.82
2022-09-28T10:20:53.218Z,512.52
2022-09-28T10:26:00.387Z,514.86
2022-09-28T10:36:14.922Z,514.28
2022-09-28T10:41:22.129Z,512.10
2022-09-28T10:46:29.365Z,513.68
2022-09-28T10:51:36.544Z,515.11
2022-09-28T10:56:44.743Z,513.97
2022-09-28T11:01:51.985Z,513.52
2022-09-28T11:12:06.410Z,512.54
2022-09-28T11:17:13.664Z,514.01
2022-09-28T11:22:20.916Z,515.16
2022-09-28T11:27:28.128Z,515.67
2022-09-28T11:32:35.478Z,515.45
2022-09-28T11:37:42.795Z,515.34
2022-09-28T11:42:49.877Z,515.62
2022-09-28T11:47:57.045Z,516.17
2022-09-28T11:53:04.321Z,516.59
2022-09-28T11:58:11.510Z,516.83
2022-09-28T12:03:18.927Z,517.11
2022-09-28T12:08:25.951Z,517.53
2022-09-28T12:13:33.123Z,517.83
2022-09-28T12:18:40.354Z,517.74
2022-09-28T12:23:47.623Z,518.12
2022-09-28T12:28:54.852Z,518.53
2022-09-28T12:34:02.053Z,518.72
2022-09-28T12:39:19.136Z,519.91
2022-09-28T12:44:16.573Z,520.68
2022-09-28T12:50:13.893Z,520.16
2022-09-28T12:54:30.945Z,521.08
2022-09-28T12:59:38.184Z,523.04
2022-09-28T13:04:45.363Z,523.38
2022-09-28T13:09:52.596Z,524.21
2022-09-28T13:14:59.779Z,524.07
2022-09-28T13:20:06.988Z,522.32
2022-09-28T13:25:14.172Z,520.40
2022-09-28T13:30:21.399Z,518.42
2022-09-28T13:35:28.613Z,518.34
2022-09-28T13:40:36.020Z,518.04
2022-09-28T13:45:43.222Z,517.76
2022-09-28T13:50:50.431Z,517.53
2022-09-28T13:55:57.651Z,517.32
2022-09-28T14:01:04.975Z,517.36
2022-09-28T14:06:12.102Z,518.02
2022-09-28T14:11:19.304Z,517.45
2022-09-28T14:16:26.961Z,518.45
2022-09-28T14:21:34.171Z,518.67
2022-09-28T14:26:41.463Z,519.81
2022-09-28T14:31:48.676Z,520.07
2022-09-28T14:36:55.938Z,520.85
2022-09-28T14:42:03.251Z,520.52
2022-09-28T14:47:10.521Z,519.91
2022-09-28T14:52:17.745Z,518.55
2022-09-28T14:57:25.056Z,517.25
2022-09-28T15:02:32.335Z,516.07
2022-09-28T15:07:39.550Z,515.86
2022-09-28T15:12:46.851Z,514.69
2022-09-28T15:17:54.041Z,513.79
2022-09-28T15:23:01.247Z,513.96
2022-09-28T15:28:08.478Z,514.16
2022-09-28T15:33:17.262Z,514.47
2022-09-28T15:38:25.696Z,514.47
2022-09-28T15:43:32.974Z,514.25
2022-09-28T15:48:40.132Z,513.52
2022-09-28T15:53:47.431Z,513.88
2022-09-28T15:58:54.678Z,514.29
2022-09-28T16:04:01.908Z,514.56
2022-09-28T16:09:09.500Z,515.45
2022-09-28T16:14:16.388Z,515.77
2022-09-28T16:19:23.567Z,517.15
2022-09-28T16:24:30.815Z,516.10
2022-09-28T16:29:38.108Z,516.30
2022-09-28T16:34:45.270Z,516.46
2022-09-28T16:39:52.503Z,516.57
2022-09-28T16:44:59.750Z,515.81
2022-09-28T16:50:06.949Z,515.19
2022-09-28T16:55:39.077Z,513.54
2022-09-28T17:00:21.389Z,512.30
2022-09-28T17:05:28.577Z,511.58
2022-09-28T17:10:55.732Z,511.08
2022-09-28T17:15:43.081Z,510.47
2022-09-28T17:20:50.202Z,509.64
2022-09-28T17:25:57.417Z,509.61
2022-09-28T17:31:04.783Z,508.88
2022-09-28T17:36:11.856Z,508.39
2022-09-28T17:41:20.651Z,508.07
2022-09-28T17:46:26.389Z,507.76
2022-09-28T17:51:33.479Z,507.33
2022-09-28T17:56:40.624Z,506.87
2022-09-28T18:01:47.891Z,506.39
2022-09-28T18:06:54.951Z,505.57
2022-09-28T18:12:02.209Z,504.82
2022-09-28T18:17:09.475Z,504.33
2022-09-28T18:22:16.629Z,503.71
2022-09-28T18:27:23.876Z,503.24
2022-09-28T18:32:31.102Z,502.70
2022-09-28T18:37:38.363Z,502.39
2022-09-28T18:42:45.587Z,502.35
2022-09-28T18:47:52.861Z,501.46
2022-09-28T18:53:00.043Z,501.37
2022-09-28T18:58:09.171Z,501.24
2022-09-28T19:03:16.524Z,501.32
2022-09-28T19:08:27.560Z,500.39
2022-09-28T19:13:30.800Z,499.72
2022-09-28T19:18:37.991Z,500.70
2022-09-28T19:23:48.906Z,499.24
2022-09-28T19:28:52.600Z,499.62
2022-09-28T19:33:59.827Z,498.88
2022-09-28T19:39:07.311Z,498.01
2022-09-28T19:44:14.552Z,497.94
2022-09-28T19:49:21.833Z,497.96
2022-09-28T19:54:33.141Z,497.16
2022-09-28T19:59:36.323Z,496.90
2022-09-28T20:04:43.535Z,497.34
2022-09-28T20:09:50.651Z,496.70
2022-09-28T20:14:57.807Z,497.30
2022-09-28T20:20:05.067Z,496.99
2022-09-28T20:25:12.246Z,497.52
2022-09-28T20:30:19.463Z,497.40
2022-09-28T20:35:32.922Z,497.05
2022-09-28T20:40:34.347Z,496.89
2022-09-28T20:45:41.485Z,496.60
2022-09-28T20:50:48.743Z,496.81
2022-09-28T20:55:56.402Z,497.19
2022-09-28T21:01:03.645Z,496.81
2022-09-28T21:06:12.355Z,497.51
2022-09-28T21:11:18.017Z,498.05
2022-09-28T21:16:25.217Z,498.37
2022-09-28T21:21:32.442Z,498.22
2022-09-28T21:26:39.623Z,498.05
2022-09-28T21:31:46.875Z,498.01
2022-09-28T21:36:54.088Z,498.63
2022-09-28T21:42:01.259Z,499.25
2022-09-28T21:47:08.429Z,499.93
2022-09-28T21:52:15.698Z,499.81
2022-09-28T21:57:22.867Z,500.51
2022-09-28T22:02:30.165Z,500.81
2022-09-28T22:07:37.409Z,501.25
2022-09-28T22:12:44.587Z,501.46
2022-09-28T22:17:51.909Z,501.24
2022-09-28T22:22:59.230Z,500.49
2022-09-28T22:28:06.404Z,501.56
2022-09-28T22:33:13.716Z,500.88
2022-09-28T22:38:21.025Z,501.21
2022-09-28T22:43:28.136Z,501.38
2022-09-28T22:48:35.373Z,501.47
2022-09-28T22:53:42.697Z,501.53
2022-09-28T22:58:49.880Z,501.60
2022-09-28T23:03:57.135Z,502.07
2022-09-28T23:09:04.434Z,502.79
2022-09-28T23:14:11.574Z,503.80
2022-09-28T23:19:18.936Z,504.15
2022-09-28T23:24:26.079Z,504.36
2022-09-28T23:29:33.256Z,504.64
2022-09-28T23:34:40.458Z,503.74
2022-09-28T23:39:47.687Z,503.27
2022-09-28T23:44:54.820Z,503.69
2022-09-28T23:50:02.071Z,504.16
2022-09-28T23:55:09.310Z,503.57
